Time;durP1;ratioP1;P1;durP2;ratioP2;P2;SDS_P1;SDS_P2;PMS_P1;PMS_P2;Temp;Humidity;BMP_temperature;BMP_pressure;BME280_temperature;BME280_humidity;BME280_pressure;Samples;Min_cycle;Max_cycle;Signal;HPM_P1;HPM_P2
2021/11/30 00:01:32;;;;;;;3.35;1.23;;;4.90;99.90;;;;;;5005398;28;20033;-81
2021/11/30 00:16:16;;;;;;;6.50;2.05;;;4.90;99.90;;;;;;4773109;29;20513;-77
2021/11/30 00:18:42;;;;;;;6.32;1.70;;;4.90;99.90;;;;;;4750309;29;20050;-77
2021/11/30 00:21:12;;;;;;;7.38;1.60;;;4.90;99.90;;;;;;4747141;29;20048;-77
2021/11/30 00:23:38;;;;;;;10.05;3.10;;;4.90;99.90;;;;;;4778607;29;20054;-78
2021/11/30 00:26:05;;;;;;;11.30;3.50;;;4.90;99.90;;;;;;4746613;29;20050;-81
2021/11/30 00:28:33;;;;;;;9.77;3.53;;;4.90;99.90;;;;;;4754919;29;20044;-81
2021/11/30 00:30:59;;;;;;;10.60;3.17;;;4.90;99.90;;;;;;4763787;29;20396;-82
2021/11/30 00:33:26;;;;;;;14.10;4.07;;;4.90;99.90;;;;;;4767477;29;20039;-78
2021/11/30 00:35:52;;;;;;;12.55;4.85;;;4.90;99.90;;;;;;4747684;29;20047;-78
2021/11/30 00:38:19;;;;;;;13.70;5.00;;;4.90;99.90;;;;;;4774944;29;20035;-78
2021/11/30 00:40:48;;;;;;;15.13;5.50;;;4.90;99.90;;;;;;4734404;29;20047;-82
2021/11/30 00:43:20;;;;;;;15.00;5.38;;;4.90;99.90;;;;;;4778975;29;20038;-84
2021/11/30 00:46:01;;;;;;;11.00;5.45;;;4.90;99.90;;;;;;4777955;29;20043;-83
2021/11/30 00:48:31;;;;;;;15.52;5.90;;;4.90;99.90;;;;;;4763632;29;20414;-83
2021/11/30 00:51:04;;;;;;;12.88;6.43;;;4.90;99.90;;;;;;4733242;29;20046;-83
2021/11/30 00:53:30;;;;;;;17.52;6.38;;;4.90;99.90;;;;;;4761930;29;20040;-78
2021/11/30 00:55:57;;;;;;;15.43;6.32;;;4.90;99.90;;;;;;4761296;29;20043;-78
2021/11/30 00:58:23;;;;;;;11.95;5.63;;;4.90;99.90;;;;;;4747008;29;20058;-78
2021/11/30 01:00:50;;;;;;;14.43;6.03;;;4.90;99.90;;;;;;4762103;29;20046;-77
2021/11/30 01:03:16;;;;;;;11.80;5.78;;;4.90;99.90;;;;;;4749092;29;20407;-78
2021/11/30 01:05:43;;;;;;;14.55;5.80;;;4.90;99.90;;;;;;4750844;29;20043;-78
2021/11/30 01:08:09;;;;;;;13.15;4.80;;;4.90;99.90;;;;;;4761333;29;20047;-78
2021/11/30 01:10:36;;;;;;;12.07;4.72;;;4.90;99.90;;;;;;4732589;29;20043;-77
2021/11/30 01:13:04;;;;;;;12.18;4.55;;;4.90;99.90;;;;;;4748058;29;20031;-78
2021/11/30 01:15:31;;;;;;;13.13;4.43;;;4.90;99.90;;;;;;4788523;29;20051;-78
2021/11/30 01:17:58;;;;;;;9.27;4.30;;;4.90;99.90;;;;;;4760891;29;20047;-78
2021/11/30 01:20:26;;;;;;;9.93;3.92;;;4.90;99.90;;;;;;4773342;29;20063;-78
2021/11/30 01:22:53;;;;;;;10.23;3.42;;;4.90;99.90;;;;;;4767512;29;20035;-78
2021/11/30 01:25:20;;;;;;;9.95;3.50;;;4.90;99.90;;;;;;4798785;29;20430;-78
2021/11/30 01:27:47;;;;;;;13.02;3.92;;;4.90;99.90;;;;;;4762117;29;20042;-78
2021/11/30 01:30:15;;;;;;;8.93;3.22;;;4.90;99.90;;;;;;4777712;29;20049;-82
2021/11/30 01:41:54;;;;;;;8.25;3.90;;;4.90;99.90;;;;;;4596271;24;20051;-81
2021/11/30 01:47:35;;;;;;;9.70;4.57;;;4.70;99.90;;;;;;4777589;29;20383;-82
2021/11/30 01:49:56;;;;;;;14.00;6.55;;;4.70;99.90;;;;;;4790083;29;20039;-82
2021/11/30 01:52:23;;;;;;;9.40;5.00;;;4.60;99.90;;;;;;4789248;29;20031;-77
2021/11/30 01:54:51;;;;;;;8.80;4.65;;;4.60;99.90;;;;;;4800531;29;20054;-77
2021/11/30 01:57:20;;;;;;;11.75;6.03;;;4.50;99.90;;;;;;4812037;29;20490;-78
2021/11/30 01:59:48;;;;;;;16.05;7.35;;;4.40;99.90;;;;;;4796139;29;20038;-79
2021/11/30 02:02:19;;;;;;;10.75;5.53;;;4.40;99.90;;;;;;4808557;29;20057;-78
2021/11/30 02:04:47;;;;;;;20.92;6.65;;;4.40;99.90;;;;;;4819088;29;20034;-77
2021/11/30 02:07:14;;;;;;;18.30;6.03;;;4.30;99.90;;;;;;4789792;29;20047;-77
2021/11/30 02:09:42;;;;;;;20.33;6.43;;;4.30;99.90;;;;;;4806310;29;20039;-77
2021/11/30 02:12:09;;;;;;;20.45;8.13;;;4.30;99.90;;;;;;4797241;29;20041;-77
2021/11/30 02:14:37;;;;;;;26.20;8.90;;;4.20;99.90;;;;;;4776999;29;20431;-76
2021/11/30 02:17:08;;;;;;;25.17;8.10;;;4.20;99.90;;;;;;4790791;29;20041;-77
2021/11/30 02:19:42;;;;;;;26.42;10.05;;;4.20;99.90;;;;;;4759385;29;20368;-76
2021/11/30 02:22:13;;;;;;;29.93;8.83;;;4.10;99.90;;;;;;4799026;29;20038;-80
2021/11/30 02:24:42;;;;;;;32.20;10.38;;;4.20;99.90;;;;;;4780851;29;20054;-79
2021/11/30 02:27:08;;;;;;;27.20;10.75;;;4.10;99.90;;;;;;4802460;29;20422;-77
2021/11/30 02:29:35;;;;;;;26.70;9.80;;;4.10;99.90;;;;;;4811107;29;20046;-76
2021/11/30 02:32:02;;;;;;;30.23;11.95;;;4.10;99.90;;;;;;4777670;29;20431;-77
2021/11/30 02:34:29;;;;;;;24.17;11.00;;;4.10;99.90;;;;;;4788132;29;20057;-77
2021/11/30 02:37:03;;;;;;;22.57;9.13;;;4.10;99.90;;;;;;4800304;29;20069;-77
2021/11/30 02:39:30;;;;;;;23.50;9.85;;;4.10;99.90;;;;;;4793772;29;20486;-77
2021/11/30 02:41:57;;;;;;;31.10;10.40;;;4.10;99.90;;;;;;4773972;29;20061;-77
2021/11/30 02:44:25;;;;;;;31.03;12.93;;;4.10;99.90;;;;;;4789447;29;20054;-76
2021/11/30 02:46:57;;;;;;;26.55;11.35;;;4.10;99.90;;;;;;4791197;29;20046;-77
2021/11/30 02:49:28;;;;;;;33.17;12.65;;;4.10;99.90;;;;;;4795518;29;20510;-77
2021/11/30 02:52:09;;;;;;;24.43;10.73;;;4.00;99.90;;;;;;4794589;29;20039;-77
2021/11/30 02:54:43;;;;;;;22.20;10.20;;;4.10;99.90;;;;;;4777744;29;20047;-77
2021/11/30 02:57:12;;;;;;;23.45;10.43;;;4.10;99.90;;;;;;4800318;29;20402;-77
2021/11/30 02:59:43;;;;;;;27.90;13.70;;;4.10;99.90;;;;;;4778183;29;20031;-77
2021/11/30 03:02:15;;;;;;;21.15;10.48;;;4.10;99.90;;;;;;4793005;29;20050;-78
2021/11/30 03:04:43;;;;;;;24.05;14.10;;;4.10;99.90;;;;;;4797824;29;20034;-77
2021/11/30 03:07:15;;;;;;;20.95;11.80;;;4.10;99.90;;;;;;4778575;29;21044;-80
2021/11/30 03:09:42;;;;;;;31.63;16.77;;;4.10;99.90;;;;;;4764669;29;20069;-80
2021/11/30 03:12:09;;;;;;;35.85;16.85;;;4.10;99.90;;;;;;4774178;29;20035;-81
2021/11/30 03:14:37;;;;;;;31.52;16.70;;;4.10;99.90;;;;;;4777601;29;20046;-80
2021/11/30 03:17:05;;;;;;;26.08;14.25;;;4.10;99.90;;;;;;4758300;29;20055;-80
2021/11/30 03:19:32;;;;;;;31.70;16.93;;;4.10;99.90;;;;;;4769249;29;20491;-80
2021/11/30 03:22:00;;;;;;;24.58;15.40;;;4.20;99.90;;;;;;4778046;29;20415;-81
2021/11/30 03:24:27;;;;;;;27.45;15.70;;;4.10;99.90;;;;;;4763754;29;20043;-81
2021/11/30 03:26:54;;;;;;;26.10;15.52;;;4.20;99.90;;;;;;4789989;29;20049;-81
2021/11/30 03:29:21;;;;;;;27.98;19.17;;;4.20;99.90;;;;;;4774369;29;20506;-81
2021/11/30 03:31:51;;;;;;;27.07;16.33;;;4.20;99.90;;;;;;4776324;29;20516;-80
2021/11/30 03:34:21;;;;;;;30.42;18.05;;;4.30;99.90;;;;;;4759432;29;20039;-81
2021/11/30 03:36:50;;;;;;;25.65;19.42;;;4.30;99.90;;;;;;4794834;29;20037;-81
2021/11/30 03:39:18;;;;;;;24.05;17.90;;;4.30;99.90;;;;;;4780591;29;20035;-81
2021/11/30 03:41:47;;;;;;;22.92;18.38;;;4.30;99.90;;;;;;4774524;29;20058;-79
2021/11/30 03:44:14;;;;;;;25.37;18.23;;;4.40;99.90;;;;;;4789090;29;20049;-80
2021/11/30 03:46:41;;;;;;;25.10;17.15;;;4.40;99.90;;;;;;4771582;29;20040;-81
2021/11/30 03:49:09;;;;;;;22.00;17.63;;;4.40;99.90;;;;;;4754272;29;20043;-81
2021/11/30 03:51:36;;;;;;;23.30;18.73;;;4.40;99.90;;;;;;4787972;29;20034;-86
2021/11/30 03:54:05;;;;;;;26.88;20.00;;;4.40;99.90;;;;;;4790096;29;20043;-84
2021/11/30 03:56:32;;;;;;;27.50;21.50;;;4.50;99.90;;;;;;4775591;29;20038;-82
2021/11/30 03:58:58;;;;;;;36.25;23.77;;;4.50;99.90;;;;;;4793341;29;20049;-81
2021/11/30 04:01:25;;;;;;;36.42;24.33;;;4.50;99.90;;;;;;4765803;29;20047;-77
2021/11/30 04:03:52;;;;;;;26.50;19.02;;;4.60;99.90;;;;;;4782737;29;20494;-76
2021/11/30 04:06:18;;;;;;;28.30;20.52;;;4.60;99.90;;;;;;4769193;29;20061;-76
2021/11/30 04:08:45;;;;;;;25.15;20.75;;;4.60;99.90;;;;;;4764789;29;20495;-78
2021/11/30 04:11:11;;;;;;;34.73;25.20;;;4.70;99.90;;;;;;4795411;29;20380;-79
2021/11/30 04:13:38;;;;;;;20.88;17.05;;;4.70;99.90;;;;;;4762913;29;20043;-78
2021/11/30 04:16:05;;;;;;;18.50;15.90;;;4.80;99.90;;;;;;4780173;29;20055;-78
2021/11/30 04:18:32;;;;;;;22.33;18.17;;;4.80;99.90;;;;;;4767025;29;20057;-77
2021/11/30 04:20:58;;;;;;;21.33;18.48;;;4.80;99.90;;;;;;4769050;29;20517;-77
2021/11/30 04:23:26;;;;;;;26.13;21.65;;;4.90;99.90;;;;;;4775231;29;20043;-77
2021/11/30 04:25:52;;;;;;;16.10;14.27;;;4.90;99.90;;;;;;4765899;29;20054;-77
2021/11/30 04:28:19;;;;;;;26.02;20.60;;;5.00;99.90;;;;;;4775291;29;20046;-77
2021/11/30 04:30:45;;;;;;;25.63;19.33;;;5.00;99.90;;;;;;4778275;29;20435;-77
2021/11/30 04:33:12;;;;;;;19.38;16.73;;;5.10;99.90;;;;;;4754384;29;20046;-77
2021/11/30 04:35:38;;;;;;;11.75;10.65;;;5.10;99.90;;;;;;4762857;29;20058;-76
2021/11/30 04:38:05;;;;;;;10.43;9.43;;;5.20;99.90;;;;;;4759307;29;20058;-77
2021/11/30 04:40:31;;;;;;;12.55;11.23;;;5.30;99.90;;;;;;4751448;29;20057;-77
2021/11/30 04:42:58;;;;;;;13.82;10.55;;;5.30;99.90;;;;;;4778400;29;20055;-83
2021/11/30 04:47:54;;;;;;;11.98;10.50;;;5.50;99.90;;;;;;4771557;29;20039;-83
2021/11/30 04:50:24;;;;;;;10.68;9.57;;;5.50;99.90;;;;;;4771783;29;20049;-83
2021/11/30 04:52:52;;;;;;;13.68;12.23;;;5.60;99.90;;;;;;4757351;29;20058;-83
2021/11/30 04:55:23;;;;;;;12.20;10.90;;;5.60;99.90;;;;;;4774909;29;20046;-83
2021/11/30 04:57:56;;;;;;;15.68;11.95;;;5.70;99.90;;;;;;4799418;29;20047;-83
2021/11/30 05:00:23;;;;;;;11.57;10.35;;;5.70;99.90;;;;;;4780885;29;20043;-82
2021/11/30 05:02:50;;;;;;;9.77;8.75;;;5.80;99.90;;;;;;4753854;29;20487;-83
2021/11/30 05:05:16;;;;;;;10.02;9.05;;;5.80;99.90;;;;;;4742001;29;20047;-83
2021/11/30 05:07:43;;;;;;;10.50;8.55;;;5.80;99.90;;;;;;4775133;29;20043;-84
2021/11/30 05:10:13;;;;;;;16.85;12.25;;;5.90;99.90;;;;;;4777698;29;20039;-84
2021/11/30 05:12:41;;;;;;;11.07;9.18;;;5.90;99.90;;;;;;4778153;29;20456;-85
2021/11/30 05:15:09;;;;;;;10.68;9.55;;;5.90;99.90;;;;;;4765531;29;20061;-84
2021/11/30 05:17:36;;;;;;;11.73;10.48;;;6.00;99.90;;;;;;4763704;29;20047;-78
2021/11/30 05:20:04;;;;;;;13.70;11.38;;;6.00;99.90;;;;;;4775314;29;20050;-79
2021/11/30 05:22:31;;;;;;;11.25;10.05;;;6.10;99.90;;;;;;4781809;29;20050;-78
2021/11/30 05:24:58;;;;;;;11.90;10.48;;;6.10;99.90;;;;;;4770362;29;20050;-78
2021/11/30 05:27:26;;;;;;;9.80;8.80;;;6.20;99.90;;;;;;4765805;29;20046;-78
2021/11/30 05:29:52;;;;;;;10.43;9.23;;;6.20;99.90;;;;;;4794680;29;20406;-77
2021/11/30 05:32:19;;;;;;;9.77;8.43;;;6.20;99.90;;;;;;4771482;29;20034;-78
2021/11/30 05:34:46;;;;;;;8.75;7.88;;;6.20;99.90;;;;;;4757404;29;20038;-77
2021/11/30 05:37:13;;;;;;;11.18;9.98;;;6.30;99.90;;;;;;4789762;29;20038;-78
2021/11/30 05:39:40;;;;;;;14.55;11.75;;;6.30;99.90;;;;;;4797481;29;20042;-77
2021/11/30 05:42:07;;;;;;;7.97;7.18;;;6.40;99.90;;;;;;4772820;29;20051;-76
2021/11/30 05:44:35;;;;;;;10.50;8.65;;;6.40;99.90;;;;;;4791302;29;20479;-77
2021/11/30 05:47:01;;;;;;;10.75;8.60;;;6.40;99.90;;;;;;4779103;29;20037;-77
2021/11/30 05:49:28;;;;;;;8.95;8.05;;;6.50;99.90;;;;;;4764813;29;20050;-77
2021/11/30 05:51:54;;;;;;;8.90;8.00;;;6.50;99.90;;;;;;4770044;29;20038;-76
2021/11/30 05:54:21;;;;;;;8.90;7.53;;;6.50;99.90;;;;;;4778379;29;20043;-76
2021/11/30 05:56:47;;;;;;;6.97;6.38;;;6.60;99.90;;;;;;4773614;29;20054;-76
2021/11/30 05:59:16;;;;;;;6.13;5.63;;;6.60;99.90;;;;;;4771022;29;20054;-76
2021/11/30 06:01:42;;;;;;;8.43;6.80;;;6.60;99.90;;;;;;4772592;29;20049;-82
2021/11/30 06:04:09;;;;;;;8.30;6.07;;;6.70;99.90;;;;;;4774911;29;20483;-83
2021/11/30 06:06:37;;;;;;;6.72;6.13;;;6.70;99.90;;;;;;4775091;29;20043;-82
2021/11/30 06:09:07;;;;;;;4.78;4.38;;;6.70;99.90;;;;;;4798160;29;20034;-82
2021/11/30 06:11:35;;;;;;;8.18;7.18;;;6.80;99.90;;;;;;4792921;29;20434;-82
2021/11/30 06:14:01;;;;;;;5.97;5.25;;;6.90;99.90;;;;;;4754740;29;20416;-83
2021/11/30 06:16:28;;;;;;;5.95;5.40;;;6.90;99.90;;;;;;4760021;29;20110;-83
2021/11/30 06:18:55;;;;;;;5.40;4.90;;;6.90;99.90;;;;;;4778831;29;20043;-83
2021/11/30 06:21:22;;;;;;;5.13;4.63;;;6.90;99.90;;;;;;4789962;29;20045;-83
2021/11/30 06:23:48;;;;;;;8.00;6.43;;;7.00;99.90;;;;;;4775748;29;20035;-83
2021/11/30 06:26:15;;;;;;;5.30;4.80;;;7.00;99.90;;;;;;4765511;29;20047;-83
2021/11/30 06:28:42;;;;;;;6.53;5.38;;;7.00;99.90;;;;;;4790294;29;20047;-84
2021/11/30 06:31:09;;;;;;;6.40;5.55;;;7.00;99.90;;;;;;4794335;29;20060;-78
2021/11/30 06:33:36;;;;;;;4.57;4.18;;;7.10;99.90;;;;;;4773086;29;20568;-77
2021/11/30 06:36:03;;;;;;;5.55;4.38;;;7.10;99.90;;;;;;4757176;29;20047;-77
2021/11/30 06:38:31;;;;;;;10.93;7.47;;;7.20;99.90;;;;;;4790865;29;20042;-77
2021/11/30 06:40:57;;;;;;;5.68;4.90;;;7.20;99.90;;;;;;4751489;29;20067;-77
2021/11/30 06:43:24;;;;;;;7.40;5.85;;;7.20;99.90;;;;;;4768859;29;20410;-75
2021/11/30 06:45:51;;;;;;;9.07;7.10;;;7.30;99.90;;;;;;4790549;29;20039;-75
2021/11/30 06:48:19;;;;;;;6.78;5.80;;;7.30;99.90;;;;;;4788402;29;20031;-76
2021/11/30 06:50:47;;;;;;;7.28;5.68;;;7.40;99.90;;;;;;4803316;29;20038;-76
2021/11/30 06:53:13;;;;;;;5.85;5.00;;;7.40;99.90;;;;;;4795772;29;20044;-76
2021/11/30 06:55:40;;;;;;;7.75;5.72;;;7.40;99.90;;;;;;4783578;29;20065;-75
2021/11/30 06:58:06;;;;;;;6.45;5.40;;;7.50;99.90;;;;;;4785647;29;20053;-76
2021/11/30 07:00:33;;;;;;;7.65;5.22;;;7.60;99.90;;;;;;4753676;29;20475;-78
2021/11/30 07:03:00;;;;;;;10.80;7.75;;;7.60;99.90;;;;;;4782323;29;20047;-76
2021/11/30 07:05:31;;;;;;;13.43;7.03;;;7.70;99.90;;;;;;4763455;29;20145;-77
2021/11/30 07:08:14;;;;;;;9.20;6.07;;;7.70;99.90;;;;;;4761207;29;20046;-78
2021/11/30 07:10:51;;;;;;;6.70;6.00;;;7.80;99.90;;;;;;4761576;29;20043;-78
2021/11/30 07:13:29;;;;;;;7.97;5.72;;;7.90;99.90;;;;;;4748233;29;20050;-77
2021/11/30 07:16:01;;;;;;;6.70;6.00;;;8.00;99.90;;;;;;4767159;29;20528;-76
2021/11/30 07:18:29;;;;;;;6.93;4.97;;;8.00;99.90;;;;;;4772457;29;20406;-76
2021/11/30 07:20:56;;;;;;;8.70;6.35;;;8.00;99.90;;;;;;4766729;29;20066;-76
2021/11/30 07:23:24;;;;;;;7.00;5.97;;;8.10;99.90;;;;;;4786356;29;20053;-76
2021/11/30 07:25:52;;;;;;;6.68;5.45;;;8.20;99.90;;;;;;4766118;29;20047;-76
2021/11/30 07:28:22;;;;;;;14.73;8.90;;;8.20;99.90;;;;;;4781378;29;20039;-76
2021/11/30 07:30:49;;;;;;;8.27;5.55;;;8.30;99.90;;;;;;4778970;29;20405;-76
2021/11/30 07:33:15;;;;;;;9.65;6.35;;;8.30;99.90;;;;;;4794278;29;20130;-77
2021/11/30 07:35:42;;;;;;;16.08;7.90;;;8.40;99.90;;;;;;4771983;29;20039;-77
2021/11/30 07:38:08;;;;;;;21.38;11.32;;;8.50;99.90;;;;;;4773675;29;20069;-77
2021/11/30 07:40:35;;;;;;;12.98;8.30;;;8.50;99.90;;;;;;4766420;29;20402;-82
2021/11/30 07:43:02;;;;;;;14.93;8.40;;;8.50;99.90;;;;;;4785168;29;20047;-82
2021/11/30 07:45:28;;;;;;;12.65;7.60;;;8.50;99.90;;;;;;4784731;29;20050;-78
2021/11/30 07:47:55;;;;;;;12.43;7.15;;;8.60;99.90;;;;;;4776684;29;20042;-77
2021/11/30 07:50:21;;;;;;;12.55;7.05;;;8.60;99.90;;;;;;4760660;29;20049;-77
2021/11/30 07:52:48;;;;;;;12.15;6.38;;;8.60;99.90;;;;;;4766285;29;20069;-78
2021/11/30 07:55:16;;;;;;;12.00;6.22;;;8.60;99.90;;;;;;4762075;29;20039;-77
2021/11/30 07:57:43;;;;;;;15.60;6.80;;;8.70;99.90;;;;;;4785464;29;20030;-77
2021/11/30 08:00:13;;;;;;;7.88;5.63;;;8.70;99.90;;;;;;4770009;29;20030;-77
2021/11/30 08:02:41;;;;;;;13.13;6.50;;;8.70;99.90;;;;;;4771901;29;20031;-77
2021/11/30 08:05:10;;;;;;;10.48;6.03;;;8.70;99.90;;;;;;4769532;29;20061;-77
2021/11/30 08:07:38;;;;;;;9.88;6.57;;;8.70;99.90;;;;;;4774741;29;20041;-77
2021/11/30 08:10:12;;;;;;;12.68;6.18;;;8.80;99.90;;;;;;4789503;29;20045;-77
2021/11/30 08:12:39;;;;;;;6.00;4.82;;;8.80;99.90;;;;;;4769781;29;20054;-76
2021/11/30 08:15:06;;;;;;;15.40;7.60;;;8.80;99.90;;;;;;4773130;29;20038;-78
2021/11/30 08:17:33;;;;;;;12.85;6.55;;;8.80;99.90;;;;;;4768310;29;20046;-78
2021/11/30 08:20:00;;;;;;;10.15;5.35;;;8.90;99.90;;;;;;4779604;29;20047;-76
2021/11/30 08:22:27;;;;;;;12.57;5.75;;;8.80;99.90;;;;;;4773837;29;20403;-75
2021/11/30 08:24:54;;;;;;;8.57;4.32;;;8.90;99.90;;;;;;4749974;29;20367;-76
2021/11/30 08:27:20;;;;;;;10.88;5.18;;;8.90;99.90;;;;;;4769137;29;20043;-76
2021/11/30 08:29:50;;;;;;;10.68;4.95;;;8.90;99.90;;;;;;4779403;29;20046;-76
2021/11/30 08:32:22;;;;;;;8.55;4.40;;;8.90;99.90;;;;;;4767967;29;20415;-76
2021/11/30 08:34:52;;;;;;;14.98;5.85;;;8.90;99.90;;;;;;4786035;29;20066;-76
2021/11/30 08:37:20;;;;;;;10.60;6.80;;;9.00;99.90;;;;;;4769064;29;20050;-77
2021/11/30 08:39:49;;;;;;;11.18;5.05;;;9.00;99.90;;;;;;4774030;29;20047;-76
2021/11/30 08:42:17;;;;;;;6.88;3.97;;;9.00;99.90;;;;;;4775109;29;20549;-75
2021/11/30 08:44:44;;;;;;;9.43;4.10;;;9.00;99.90;;;;;;4777669;29;20050;-77
2021/11/30 08:47:13;;;;;;;5.40;3.05;;;9.00;99.90;;;;;;4782191;29;20042;-77
2021/11/30 08:49:40;;;;;;;6.70;3.80;;;9.00;99.90;;;;;;4762169;29;20050;-77
2021/11/30 08:52:11;;;;;;;8.40;3.22;;;9.10;99.90;;;;;;4788809;29;20383;-77
2021/11/30 08:54:38;;;;;;;7.63;3.10;;;9.10;99.90;;;;;;4772951;29;20487;-81
2021/11/30 08:57:05;;;;;;;7.03;3.38;;;9.10;99.90;;;;;;4762692;29;20407;-77
2021/11/30 08:59:33;;;;;;;7.70;4.55;;;9.10;99.90;;;;;;4773678;29;20051;-77
2021/11/30 09:01:59;;;;;;;9.52;4.32;;;9.10;99.90;;;;;;4778931;29;20049;-76
2021/11/30 09:04:26;;;;;;;10.32;4.00;;;9.20;99.90;;;;;;4775993;29;20418;-77
2021/11/30 09:06:53;;;;;;;7.07;3.92;;;9.10;99.90;;;;;;4776278;29;20106;-77
2021/11/30 09:09:20;;;;;;;11.52;3.72;;;9.20;99.90;;;;;;4768364;29;20059;-77
2021/11/30 09:11:47;;;;;;;8.27;4.35;;;9.20;99.90;;;;;;4777837;29;20039;-77
2021/11/30 09:14:19;;;;;;;7.10;3.50;;;9.20;99.90;;;;;;4758610;29;20059;-77
2021/11/30 09:16:45;;;;;;;5.68;3.80;;;9.20;99.90;;;;;;4761602;29;20487;-83
2021/11/30 09:19:12;;;;;;;7.60;3.03;;;9.30;99.90;;;;;;4784303;29;20046;-83
2021/11/30 09:21:39;;;;;;;6.28;2.40;;;9.30;99.90;;;;;;4777724;29;20043;-82
2021/11/30 09:24:06;;;;;;;7.38;2.95;;;9.30;99.90;;;;;;4777625;29;20043;-83
2021/11/30 09:26:32;;;;;;;4.32;2.03;;;9.30;99.90;;;;;;4760387;29;20386;-83
2021/11/30 09:28:59;;;;;;;8.68;2.95;;;9.40;99.90;;;;;;4768714;29;20046;-83
2021/11/30 09:31:25;;;;;;;7.05;2.75;;;9.40;99.90;;;;;;4788510;29;20050;-83
2021/11/30 09:33:52;;;;;;;6.82;2.63;;;9.40;99.90;;;;;;4772259;29;20038;-77
2021/11/30 09:36:18;;;;;;;10.32;2.90;;;9.40;99.90;;;;;;4776310;29;20040;-77
2021/11/30 09:38:45;;;;;;;6.43;2.38;;;9.40;99.90;;;;;;4775187;29;20046;-77
2021/11/30 09:41:12;;;;;;;7.10;2.40;;;9.40;99.90;;;;;;4792132;29;20064;-77
2021/11/30 09:43:39;;;;;;;4.47;1.80;;;9.50;99.90;;;;;;4771907;29;20040;-77
2021/11/30 09:46:09;;;;;;;3.65;2.08;;;9.50;99.90;;;;;;4787741;29;20047;-77
2021/11/30 09:48:37;;;;;;;8.40;2.67;;;9.50;99.90;;;;;;4753769;29;20031;-82
2021/11/30 09:51:05;;;;;;;3.97;1.85;;;9.50;99.90;;;;;;4762150;29;20035;-80
2021/11/30 09:53:32;;;;;;;5.60;1.60;;;9.50;99.90;;;;;;4786597;29;20513;-80
2021/11/30 09:55:59;;;;;;;5.97;1.77;;;9.60;99.90;;;;;;4778125;29;20050;-80
2021/11/30 09:58:26;;;;;;;3.25;0.93;;;9.50;99.90;;;;;;4755391;29;20043;-77
2021/11/30 10:00:55;;;;;;;2.40;0.70;;;9.60;99.90;;;;;;4775007;29;20050;-77
2021/11/30 10:03:23;;;;;;;2.60;0.70;;;9.50;99.90;;;;;;4760793;29;20043;-77
2021/11/30 10:05:51;;;;;;;2.88;1.20;;;9.50;99.90;;;;;;4775525;29;20043;-77
2021/11/30 10:08:31;;;;;;;1.20;0.55;;;9.50;99.90;;;;;;4777581;29;20042;-76
2021/11/30 10:10:59;;;;;;;2.75;1.33;;;9.50;99.90;;;;;;4786991;29;20077;-77
2021/11/30 10:13:26;;;;;;;2.00;0.47;;;9.40;99.90;;;;;;4774884;29;20513;-77
2021/11/30 10:16:00;;;;;;;1.08;0.50;;;9.40;99.90;;;;;;4771888;29;20061;-77
2021/11/30 10:18:31;;;;;;;0.88;0.40;;;9.40;99.90;;;;;;4790539;29;20042;-77
2021/11/30 10:21:11;;;;;;;2.10;0.30;;;9.30;99.90;;;;;;4768667;29;20043;-77
2021/11/30 10:24:01;;;;;;;1.05;0.40;;;9.30;99.90;;;;;;4778155;29;20051;-77
2021/11/30 10:26:41;;;;;;;3.60;0.75;;;9.20;99.90;;;;;;4767707;29;20379;-77
2021/11/30 10:29:10;;;;;;;0.93;0.30;;;9.20;99.90;;;;;;4769315;29;20058;-82
2021/11/30 10:31:45;;;;;;;1.38;0.30;;;9.20;99.90;;;;;;4772976;29;20039;-81
2021/11/30 10:34:18;;;;;;;2.30;0.40;;;9.20;99.90;;;;;;4778336;29;20042;-81
2021/11/30 10:36:45;;;;;;;2.40;0.40;;;9.10;99.90;;;;;;4790293;29;20073;-82
2021/11/30 10:39:33;;;;;;;1.35;0.40;;;9.00;99.90;;;;;;4786021;29;20050;-82
2021/11/30 10:42:22;;;;;;;4.90;0.35;;;9.10;99.90;;;;;;4765875;29;20063;-78
2021/11/30 10:44:52;;;;;;;3.35;0.50;;;9.00;99.90;;;;;;4783037;29;20041;-80
2021/11/30 10:47:24;;;;;;;5.20;0.60;;;9.00;99.90;;;;;;4807645;29;20051;-84
2021/11/30 10:49:54;;;;;;;3.47;0.52;;;8.90;99.90;;;;;;4782582;29;20038;-83
2021/11/30 10:52:26;;;;;;;3.97;0.95;;;8.90;99.90;;;;;;4773439;29;20053;-83
2021/11/30 10:55:08;;;;;;;7.15;3.42;;;8.80;99.90;;;;;;4773468;29;20477;-81
2021/11/30 10:57:36;;;;;;;7.28;2.40;;;8.80;99.90;;;;;;4798557;29;20340;-84
2021/11/30 11:00:33;;;;;;;4.47;1.80;;;8.80;99.90;;;;;;4761160;29;20035;-81
2021/11/30 11:03:11;;;;;;;5.55;0.90;;;8.80;99.90;;;;;;4792413;29;20383;-79
2021/11/30 11:05:40;;;;;;;7.97;1.77;;;8.90;99.90;;;;;;4782906;29;20044;-79
2021/11/30 11:08:16;;;;;;;2.83;0.73;;;8.90;99.90;;;;;;4785317;29;20039;-79
2021/11/30 11:10:57;;;;;;;2.03;0.63;;;8.90;99.90;;;;;;4770198;29;20429;-78
2021/11/30 11:13:34;;;;;;;2.50;0.50;;;8.80;99.90;;;;;;4761292;29;20031;-78
2021/11/30 11:16:03;;;;;;;4.65;0.50;;;8.80;99.90;;;;;;4775369;29;20039;-82
2021/11/30 11:18:34;;;;;;;7.05;0.63;;;8.80;99.90;;;;;;4768158;29;20035;-82
2021/11/30 11:21:15;;;;;;;5.38;0.60;;;8.80;99.90;;;;;;4765735;29;20054;-82
2021/11/30 11:23:44;;;;;;;3.42;0.40;;;8.90;99.90;;;;;;4777673;29;20228;-82
2021/11/30 11:26:35;;;;;;;6.65;0.70;;;8.90;99.90;;;;;;4783049;29;20142;-80
2021/11/30 11:29:06;;;;;;;5.57;1.30;;;8.90;99.90;;;;;;4791873;29;20038;-80
2021/11/30 11:31:32;;;;;;;4.43;0.40;;;8.90;99.90;;;;;;4793876;29;20030;-81
2021/11/30 11:34:01;;;;;;;5.03;0.50;;;8.90;99.90;;;;;;4786654;29;20035;-80
2021/11/30 11:36:28;;;;;;;3.63;0.30;;;8.90;99.90;;;;;;4770295;29;20062;-80
2021/11/30 11:38:55;;;;;;;3.00;0.50;;;8.90;99.90;;;;;;4773522;29;20038;-80
2021/11/30 11:41:24;;;;;;;5.90;0.50;;;9.00;99.90;;;;;;4771535;29;20055;-81
2021/11/30 11:43:51;;;;;;;5.25;0.40;;;8.90;99.90;;;;;;4786817;29;20483;-80
2021/11/30 11:46:20;;;;;;;3.17;0.30;;;8.90;99.90;;;;;;4788506;29;20047;-80
2021/11/30 11:48:55;;;;;;;3.35;0.60;;;9.00;99.90;;;;;;4792297;29;20050;-81
2021/11/30 11:51:22;;;;;;;3.42;0.52;;;9.00;99.90;;;;;;4790920;29;20305;-79
2021/11/30 11:53:50;;;;;;;4.32;0.60;;;9.00;99.90;;;;;;4789116;29;20038;-81
2021/11/30 11:56:30;;;;;;;3.50;0.75;;;9.00;99.90;;;;;;4763268;29;20051;-80
2021/11/30 11:59:19;;;;;;;4.53;0.68;;;9.00;99.90;;;;;;4758184;29;20487;-82
2021/11/30 12:02:10;;;;;;;4.30;0.63;;;9.00;99.90;;;;;;4804015;29;20047;-81
2021/11/30 12:04:42;;;;;;;3.30;0.55;;;9.00;99.90;;;;;;4769621;29;20466;-77
2021/11/30 12:07:08;;;;;;;7.95;0.88;;;8.90;99.90;;;;;;4766577;29;20038;-77
2021/11/30 12:09:36;;;;;;;6.43;0.50;;;8.90;99.90;;;;;;4778337;29;20040;-77
2021/11/30 12:12:24;;;;;;;5.10;0.57;;;8.90;99.90;;;;;;4755665;29;20046;-81
2021/11/30 12:14:58;;;;;;;1.98;0.40;;;9.00;99.90;;;;;;4773306;29;20043;-81
2021/11/30 12:17:24;;;;;;;6.38;0.50;;;9.00;99.90;;;;;;4771702;29;20050;-81
2021/11/30 12:20:07;;;;;;;4.43;0.50;;;9.00;99.90;;;;;;4779352;29;20047;-81
2021/11/30 12:22:58;;;;;;;4.55;0.82;;;9.00;99.90;;;;;;4785375;29;20477;-81
2021/11/30 12:25:32;;;;;;;2.08;0.47;;;9.00;99.90;;;;;;4800088;29;20034;-81
2021/11/30 12:28:01;;;;;;;4.35;0.55;;;9.00;99.90;;;;;;4769960;29;20042;-81
2021/11/30 12:30:36;;;;;;;2.10;0.40;;;8.90;99.90;;;;;;4779723;29;20036;-79
2021/11/30 12:33:15;;;;;;;2.45;0.60;;;8.90;99.90;;;;;;4778771;29;20495;-80
2021/11/30 12:35:48;;;;;;;4.57;0.68;;;9.00;99.90;;;;;;4782078;29;20038;-80
2021/11/30 12:38:16;;;;;;;7.05;0.80;;;9.00;99.90;;;;;;4783788;29;20495;-77
2021/11/30 12:40:43;;;;;;;3.15;0.60;;;8.90;99.90;;;;;;4790347;29;20061;-78
2021/11/30 12:43:12;;;;;;;3.70;0.85;;;9.00;99.90;;;;;;4754220;29;20054;-78
2021/11/30 12:45:47;;;;;;;4.57;0.50;;;9.00;99.90;;;;;;4802498;29;20070;-79
2021/11/30 12:48:22;;;;;;;3.40;0.57;;;9.00;99.90;;;;;;4763798;29;20035;-79
2021/11/30 12:50:57;;;;;;;2.50;0.50;;;9.00;99.90;;;;;;4781329;29;20054;-80
2021/11/30 12:53:55;;;;;;;2.20;0.57;;;9.00;99.90;;;;;;4763254;29;20049;-80
2021/11/30 12:56:46;;;;;;;6.03;0.88;;;9.00;99.90;;;;;;4754861;29;20054;-80
2021/11/30 12:59:35;;;;;;;13.18;10.45;;;9.00;99.90;;;;;;4784522;29;20055;-79
2021/11/30 13:02:47;;;;;;;7.35;5.00;;;9.00;99.90;;;;;;4778087;29;20042;-80
2021/11/30 13:05:15;;;;;;;12.53;7.97;;;9.00;99.90;;;;;;4777125;29;20043;-79
2021/11/30 13:07:48;;;;;;;5.43;2.75;;;9.10;99.90;;;;;;4763685;29;20812;-80
2021/11/30 13:10:27;;;;;;;3.30;1.33;;;9.10;99.90;;;;;;4783355;29;20047;-80
2021/11/30 13:12:57;;;;;;;5.88;3.50;;;9.20;99.90;;;;;;4789423;29;20049;-77
2021/11/30 13:15:24;;;;;;;2.50;1.42;;;9.10;99.90;;;;;;4795410;29;20038;-77
2021/11/30 13:18:03;;;;;;;2.45;0.80;;;9.20;99.90;;;;;;4785929;29;20049;-77
2021/11/30 13:20:31;;;;;;;1.10;0.60;;;9.20;99.90;;;;;;4788529;29;20043;-77
2021/11/30 13:22:57;;;;;;;1.23;0.50;;;9.20;99.90;;;;;;4791019;29;20035;-77
2021/11/30 13:25:28;;;;;;;1.33;0.43;;;9.10;99.90;;;;;;4784333;29;20050;-77
2021/11/30 13:27:56;;;;;;;0.60;0.30;;;9.10;99.90;;;;;;4776820;29;20487;-77
2021/11/30 13:30:25;;;;;;;2.00;1.35;;;9.10;99.90;;;;;;4768441;29;20046;-78